Time;durP1;ratioP1;P1;durP2;ratioP2;P2;SDS_P1;SDS_P2;PMS_P1;PMS_P2;Temp;Humidity;BMP_temperature;BMP_pressure;BME280_temperature;BME280_humidity;BME280_pressure;Samples;Min_cycle;Max_cycle;Signal;HPM_P1;HPM_P2
2022/08/11 00:02:34;;;;;;;4.83;4.33;;;17.40;99.90;;;;;;5095123;28;20517;-46
2022/08/11 00:05:06;;;;;;;4.53;4.13;;;17.70;99.90;;;;;;5095709;28;20448;-46
2022/08/11 00:07:33;;;;;;;3.97;3.67;;;17.80;99.90;;;;;;5095051;28;20524;-46
2022/08/11 00:10:01;;;;;;;4.77;3.90;;;17.90;99.90;;;;;;5094767;28;20463;-47
2022/08/11 00:12:30;;;;;;;4.10;3.70;;;17.90;99.90;;;;;;5094870;28;20461;-46
2022/08/11 00:14:59;;;;;;;4.07;3.77;;;17.80;99.90;;;;;;5095265;28;20511;-47
2022/08/11 00:17:29;;;;;;;4.73;4.33;;;17.30;99.90;;;;;;5094919;28;20440;-45
2022/08/11 00:20:04;;;;;;;4.63;4.17;;;17.30;99.90;;;;;;5094693;28;20475;-46
2022/08/11 00:22:32;;;;;;;4.63;4.23;;;17.40;99.90;;;;;;5095076;28;20451;-46
2022/08/11 00:25:00;;;;;;;4.40;4.00;;;17.50;99.90;;;;;;5094564;28;20434;-46
2022/08/11 00:27:37;;;;;;;3.60;3.30;;;17.60;99.90;;;;;;5094574;28;20570;-46
2022/08/11 00:30:05;;;;;;;6.43;4.63;;;17.80;99.90;;;;;;5094435;28;20523;-46
2022/08/11 00:32:33;;;;;;;5.60;4.43;;;17.70;99.90;;;;;;5094577;28;20447;-46
2022/08/11 00:35:01;;;;;;;4.50;4.20;;;17.90;99.90;;;;;;5094779;28;20471;-46
2022/08/11 00:37:29;;;;;;;4.00;3.70;;;17.80;99.90;;;;;;5094434;28;20818;-46
2022/08/11 00:39:58;;;;;;;4.13;3.73;;;17.80;99.90;;;;;;5094305;28;20804;-46
2022/08/11 00:42:40;;;;;;;4.30;3.80;;;17.70;99.90;;;;;;5094382;28;20508;-46
2022/08/11 00:45:13;;;;;;;4.03;3.73;;;17.60;99.90;;;;;;5094502;28;20439;-46
2022/08/11 00:47:54;;;;;;;4.70;4.30;;;17.50;99.90;;;;;;5094293;28;20467;-46
2022/08/11 00:50:27;;;;;;;4.30;3.90;;;16.80;99.90;;;;;;5094021;28;20475;-46
2022/08/11 00:53:14;;;;;;;4.50;4.10;;;17.30;99.90;;;;;;5094348;28;20444;-46
2022/08/11 00:56:09;;;;;;;5.60;4.60;;;17.10;99.90;;;;;;5094378;28;20455;-47
2022/08/11 00:59:20;;;;;;;6.30;4.10;;;17.20;99.90;;;;;;5094317;28;20936;-46
2022/08/11 01:02:09;;;;;;;4.90;4.50;;;17.40;99.90;;;;;;5093353;28;20420;-46
2022/08/11 01:05:14;;;;;;;4.80;4.00;;;17.30;99.90;;;;;;5094084;28;20917;-46
2022/08/11 01:08:16;;;;;;;4.77;4.33;;;17.30;99.90;;;;;;5093974;28;20516;-46
2022/08/11 01:10:59;;;;;;;5.20;3.83;;;17.20;99.90;;;;;;5093538;28;20943;-46
2022/08/11 01:14:08;;;;;;;5.20;4.27;;;17.00;99.90;;;;;;5094503;28;20442;-46
2022/08/11 01:17:13;;;;;;;5.00;4.60;;;17.20;99.90;;;;;;5067258;28;20444;-47
2022/08/11 01:20:12;;;;;;;4.80;4.13;;;17.00;99.90;;;;;;5038296;28;20466;-46
2022/08/11 01:23:10;;;;;;;6.63;4.77;;;17.40;99.90;;;;;;5076813;28;20447;-46
2022/08/11 01:26:13;;;;;;;4.90;4.43;;;17.20;99.90;;;;;;5093446;28;20451;-46
2022/08/11 01:29:14;;;;;;;6.33;4.10;;;17.40;99.90;;;;;;5093346;28;20815;-43
2022/08/11 01:32:35;;;;;;;4.60;4.20;;;17.70;99.90;;;;;;5093619;28;20455;-47
2022/08/11 01:35:35;;;;;;;4.60;4.30;;;17.30;99.90;;;;;;5093489;28;20866;-46
2022/08/11 01:39:02;;;;;;;5.30;4.00;;;16.80;99.90;;;;;;5093387;28;20502;-46
2022/08/11 01:45:07;;;;;;;6.57;4.00;;;16.70;99.90;;;;;;5093313;28;20433;-46
2022/08/11 01:47:51;;;;;;;4.70;4.30;;;16.70;99.90;;;;;;5085609;28;20959;-47
2022/08/11 01:50:31;;;;;;;5.10;4.60;;;16.60;99.90;;;;;;5092809;28;20972;-47
2022/08/11 01:53:10;;;;;;;6.10;4.63;;;16.90;99.90;;;;;;5093001;28;20428;-46
2022/08/11 01:55:44;;;;;;;4.50;4.20;;;17.00;99.90;;;;;;5093184;28;20448;-46
2022/08/11 01:58:23;;;;;;;7.30;4.37;;;16.80;99.90;;;;;;5093058;28;20542;-45
2022/08/11 02:00:58;;;;;;;5.10;4.70;;;17.00;99.90;;;;;;5092479;28;20873;-46
2022/08/11 02:03:36;;;;;;;4.47;4.07;;;17.20;99.90;;;;;;5092736;28;20803;-46
2022/08/11 02:09:10;;;;;;;5.90;4.37;;;17.20;99.90;;;;;;5093141;28;20541;-46
2022/08/11 02:11:37;;;;;;;4.33;3.93;;;17.20;99.90;;;;;;5092300;28;20960;-46
2022/08/11 02:14:23;;;;;;;4.30;4.00;;;16.80;99.90;;;;;;5092751;28;20424;-46
2022/08/11 02:17:12;;;;;;;4.53;4.13;;;16.90;99.90;;;;;;5092807;28;20513;-46
2022/08/11 02:25:40;;;;;;;4.80;4.40;;;17.00;99.90;;;;;;5092287;28;20557;-46
2022/08/11 02:28:17;;;;;;;4.80;4.27;;;16.90;99.90;;;;;;5092597;28;20547;-45
2022/08/11 02:33:21;;;;;;;4.23;3.83;;;16.90;99.90;;;;;;5092307;28;20478;-47
2022/08/11 02:33:43;;;;;;;4.60;4.20;;;17.10;99.90;;;;;;5091768;28;20444;-46
2022/08/11 02:36:18;;;;;;;5.20;4.70;;;16.80;99.90;;;;;;5092418;28;20757;-47
2022/08/11 02:38:55;;;;;;;6.37;5.40;;;16.80;99.90;;;;;;5092216;28;20435;-46
2022/08/11 02:44:24;;;;;;;4.67;4.27;;;16.60;99.90;;;;;;5091976;28;21054;-46
2022/08/11 02:47:01;;;;;;;4.27;3.97;;;16.30;99.90;;;;;;5092231;28;20458;-46
2022/08/11 02:49:55;;;;;;;4.77;4.30;;;16.10;99.90;;;;;;5091752;28;20471;-46
2022/08/11 02:52:31;;;;;;;4.80;4.17;;;16.20;99.90;;;;;;5092113;28;20509;-46
2022/08/11 02:55:22;;;;;;;4.60;4.17;;;16.40;99.90;;;;;;5091909;28;20458;-46
2022/08/11 02:57:54;;;;;;;4.40;4.00;;;16.50;99.90;;;;;;5092305;28;20936;-45
2022/08/11 03:00:22;;;;;;;4.87;4.47;;;16.40;99.90;;;;;;5091705;28;20900;-46
2022/08/11 03:02:58;;;;;;;4.90;4.50;;;16.60;99.90;;;;;;5091745;28;20659;-46
2022/08/11 03:05:37;;;;;;;5.00;4.47;;;16.50;99.90;;;;;;5092161;28;20447;-46
2022/08/11 03:08:38;;;;;;;5.57;4.10;;;16.70;99.90;;;;;;5091831;28;20864;-46
2022/08/11 03:17:04;;;;;;;5.17;4.50;;;16.40;99.90;;;;;;5091873;28;20431;-46
2022/08/11 03:19:46;;;;;;;5.80;4.67;;;16.90;99.90;;;;;;5091208;28;20509;-46
2022/08/11 03:22:23;;;;;;;4.60;4.30;;;16.80;99.90;;;;;;5091527;28;20867;-45
2022/08/11 03:25:00;;;;;;;5.17;4.77;;;16.50;99.90;;;;;;5091303;28;20443;-46
2022/08/11 03:27:46;;;;;;;4.80;4.40;;;16.40;99.90;;;;;;5091574;28;20427;-46
2022/08/11 03:30:16;;;;;;;4.80;4.33;;;15.90;99.90;;;;;;5091325;28;20482;-46
2022/08/11 03:35:54;;;;;;;5.00;4.60;;;16.10;99.90;;;;;;5091789;28;20430;-46
2022/08/11 03:38:26;;;;;;;4.50;4.10;;;16.60;99.90;;;;;;5091094;28;20508;-46
2022/08/11 03:44:04;;;;;;;6.90;4.20;;;16.60;99.90;;;;;;5091330;28;20422;-46
2022/08/11 03:46:51;;;;;;;4.70;4.30;;;16.20;99.90;;;;;;5091106;28;20483;-46
2022/08/11 03:49:31;;;;;;;5.70;4.37;;;16.20;99.90;;;;;;5090684;28;20520;-46
2022/08/11 03:52:13;;;;;;;10.07;4.57;;;16.20;99.90;;;;;;5091273;28;20500;-46
2022/08/11 03:54:54;;;;;;;4.37;4.07;;;16.10;99.90;;;;;;5091308;28;20447;-46
2022/08/11 03:57:55;;;;;;;4.63;4.23;;;16.00;99.90;;;;;;5091416;28;20454;-46
2022/08/11 04:01:02;;;;;;;4.63;4.33;;;16.10;99.90;;;;;;5145795;22;20530;-45
2022/08/11 04:03:58;;;;;;;4.17;3.80;;;16.30;99.90;;;;;;5070113;28;20510;-46
2022/08/11 04:07:14;;;;;;;4.70;4.20;;;16.20;99.90;;;;;;5070810;28;20436;-44
2022/08/11 04:10:05;;;;;;;5.33;4.93;;;16.20;99.90;;;;;;5028490;28;20912;-45
2022/08/11 04:12:59;;;;;;;6.27;4.33;;;16.50;99.90;;;;;;5050858;28;20483;-46
2022/08/11 04:15:59;;;;;;;4.73;4.33;;;16.10;99.90;;;;;;5050888;28;20499;-46
2022/08/11 04:18:53;;;;;;;5.13;4.20;;;16.00;99.90;;;;;;5050646;28;20437;-48
2022/08/11 04:22:07;;;;;;;4.70;4.30;;;16.10;99.90;;;;;;5047710;28;20807;-44
2022/08/11 04:25:11;;;;;;;5.73;5.10;;;16.00;99.90;;;;;;5050446;28;20544;-43
2022/08/11 04:28:06;;;;;;;4.40;4.00;;;16.20;99.90;;;;;;5044206;28;20502;-44
2022/08/11 04:30:57;;;;;;;5.13;4.47;;;16.40;99.90;;;;;;5050353;28;20501;-45
2022/08/11 04:33:58;;;;;;;5.30;4.90;;;16.30;99.90;;;;;;5050816;28;20913;-45
2022/08/11 04:39:39;;;;;;;4.70;4.10;;;16.40;99.90;;;;;;5054412;28;20412;-45
2022/08/11 04:46:21;;;;;;;5.43;4.90;;;16.80;99.90;;;;;;5031152;28;20436;-48
2022/08/11 05:07:53;;;;;;;6.60;4.70;;;16.70;99.90;;;;;;5054153;28;20424;-46
2022/08/11 05:10:33;;;;;;;5.10;4.70;;;17.40;99.90;;;;;;5020286;28;20542;-45
2022/08/11 05:35:38;;;;;;;7.70;6.90;;;16.50;99.90;;;;;;5053683;28;20972;-44
2022/08/11 05:57:56;;;;;;;10.40;9.30;;;16.40;99.90;;;;;;5053033;28;20424;-45
2022/08/11 06:00:24;;;;;;;10.98;9.30;;;16.40;99.90;;;;;;5052352;28;20447;-45
2022/08/11 06:02:54;;;;;;;9.50;8.60;;;16.60;99.90;;;;;;5052849;28;20203;-47
2022/08/11 06:05:22;;;;;;;13.80;10.30;;;16.60;99.90;;;;;;5052758;28;20550;-45
2022/08/11 06:07:54;;;;;;;11.93;10.00;;;16.30;99.90;;;;;;5052488;28;20449;-45
2022/08/11 06:10:33;;;;;;;12.20;10.90;;;16.40;99.90;;;;;;5052390;28;20542;-45
2022/08/11 06:13:01;;;;;;;16.90;13.70;;;16.40;99.90;;;;;;5052673;28;20449;-46
2022/08/11 06:15:29;;;;;;;11.33;10.33;;;16.50;99.90;;;;;;5052530;28;20445;-47
2022/08/11 06:18:00;;;;;;;7.13;6.43;;;16.30;99.90;;;;;;5052476;28;20487;-45
2022/08/11 06:20:31;;;;;;;7.20;6.60;;;16.30;99.90;;;;;;5052194;28;20461;-45
2022/08/11 06:23:03;;;;;;;6.63;6.10;;;16.30;99.90;;;;;;5052347;28;20440;-46
2022/08/11 06:25:34;;;;;;;7.47;6.83;;;16.30;99.90;;;;;;5051880;28;20548;-48
2022/08/11 06:28:05;;;;;;;7.63;6.83;;;16.50;99.90;;;;;;5052123;28;20798;-45
2022/08/11 06:30:41;;;;;;;6.33;5.80;;;16.60;99.90;;;;;;5051855;28;20481;-47
2022/08/11 06:33:11;;;;;;;6.03;5.43;;;16.60;99.90;;;;;;5052189;28;20441;-45
2022/08/11 06:35:48;;;;;;;6.17;5.57;;;16.70;99.90;;;;;;5052375;28;20511;-45
2022/08/11 06:38:26;;;;;;;6.30;5.70;;;16.80;99.90;;;;;;5052471;28;20445;-46
2022/08/11 06:43:49;;;;;;;5.80;5.30;;;17.20;99.90;;;;;;5052039;28;20425;-46
2022/08/11 06:46:23;;;;;;;6.53;5.97;;;17.40;99.90;;;;;;5052077;28;20449;-45
2022/08/11 06:48:50;;;;;;;8.13;5.40;;;17.20;99.90;;;;;;5051492;28;20476;-46
2022/08/11 06:51:17;;;;;;;6.10;5.50;;;17.30;99.90;;;;;;5051853;28;20469;-46
2022/08/11 06:53:46;;;;;;;6.77;6.00;;;17.50;99.90;;;;;;5052028;28;20540;-47
2022/08/11 07:01:57;;;;;;;6.50;5.90;;;17.50;99.90;;;;;;5051367;28;20452;-46
2022/08/11 07:04:35;;;;;;;6.60;6.10;;;17.70;99.90;;;;;;5051950;28;20449;-45
2022/08/11 07:16:08;;;;;;;5.87;5.37;;;17.90;99.90;;;;;;5051711;28;20428;-45
2022/08/11 07:29:51;;;;;;;6.17;5.00;;;18.20;99.90;;;;;;5051064;28;20518;-45
2022/08/11 07:32:25;;;;;;;6.23;5.63;;;18.40;99.90;;;;;;5051169;28;20429;-47
2022/08/11 07:34:59;;;;;;;5.30;4.90;;;18.40;99.90;;;;;;5051341;28;20430;-45
2022/08/11 07:37:29;;;;;;;7.37;5.67;;;18.50;99.90;;;;;;5051508;28;20864;-46
2022/08/11 07:39:58;;;;;;;6.03;5.53;;;18.60;99.90;;;;;;5050033;28;20436;-46
2022/08/11 07:42:30;;;;;;;5.63;5.23;;;18.70;99.90;;;;;;5051165;28;20453;-46
2022/08/11 07:53:18;;;;;;;5.70;5.20;;;18.80;99.90;;;;;;5051255;28;20420;-47
2022/08/11 07:55:47;;;;;;;5.57;5.13;;;18.90;99.90;;;;;;5051237;28;20545;-47
2022/08/11 08:17:51;;;;;;;7.33;5.40;;;20.00;99.90;;;;;;5054870;28;20475;-46
2022/08/11 08:20:20;;;;;;;6.20;5.60;;;20.20;99.90;;;;;;5054631;28;20507;-46
2022/08/11 08:22:55;;;;;;;6.50;4.90;;;20.30;99.90;;;;;;5054981;28;20825;-46
2022/08/11 08:25:24;;;;;;;6.57;5.97;;;20.40;99.90;;;;;;5054414;28;20530;-45
2022/08/11 08:27:53;;;;;;;5.67;5.10;;;20.10;99.90;;;;;;5054527;28;20441;-45
2022/08/11 08:33:06;;;;;;;6.40;5.90;;;20.30;99.90;;;;;;5054580;28;20437;-44
2022/08/11 08:35:35;;;;;;;5.60;5.20;;;20.30;99.90;;;;;;5054624;28;20425;-45
2022/08/11 08:38:03;;;;;;;6.00;5.50;;;20.40;99.90;;;;;;5054520;28;20437;-46
2022/08/11 08:40:31;;;;;;;5.70;5.20;;;20.40;99.90;;;;;;5054077;28;20461;-48
2022/08/11 08:43:04;;;;;;;6.63;6.07;;;20.40;99.90;;;;;;5054257;28;20471;-45
2022/08/11 08:45:35;;;;;;;6.47;5.93;;;20.40;99.90;;;;;;5054466;28;20514;-45
2022/08/11 08:48:05;;;;;;;6.77;6.17;;;20.40;99.90;;;;;;5054157;28;20564;-46
2022/08/11 08:53:27;;;;;;;7.20;6.60;;;20.50;99.90;;;;;;5054230;28;20449;-46
2022/08/11 08:55:58;;;;;;;8.10;7.30;;;20.60;99.90;;;;;;5054353;28;20441;-45
2022/08/11 08:58:25;;;;;;;7.60;6.30;;;20.70;99.90;;;;;;5054178;28;20503;-44
2022/08/11 09:00:56;;;;;;;10.55;8.30;;;20.90;99.90;;;;;;5053158;28;20448;-44
2022/08/11 09:03:25;;;;;;;9.20;6.80;;;21.20;99.90;;;;;;5053779;28;20202;-47
2022/08/11 09:05:55;;;;;;;6.90;6.30;;;21.50;99.90;;;;;;5053857;28;20528;-48
2022/08/11 09:08:24;;;;;;;8.00;6.40;;;21.40;99.90;;;;;;5053930;28;20520;-48
2022/08/11 09:13:34;;;;;;;7.10;6.50;;;21.60;99.90;;;;;;5052629;28;20425;-47
2022/08/11 09:16:02;;;;;;;6.80;6.20;;;21.70;99.90;;;;;;5053580;28;20425;-47
2022/08/11 09:18:30;;;;;;;6.83;6.33;;;21.60;99.90;;;;;;5053921;28;20453;-47
2022/08/11 09:20:59;;;;;;;6.90;6.30;;;21.50;99.90;;;;;;5052492;28;20453;-47
2022/08/11 09:28:57;;;;;;;6.47;5.87;;;21.60;99.90;;;;;;5053481;28;20478;-48
2022/08/11 09:31:25;;;;;;;6.00;5.50;;;21.80;99.90;;;;;;5053441;28;20480;-48
2022/08/11 09:33:55;;;;;;;6.37;5.73;;;21.80;99.90;;;;;;5053368;28;20465;-48
2022/08/11 09:41:55;;;;;;;5.67;5.17;;;22.10;99.90;;;;;;5053003;28;21096;-48
2022/08/11 09:47:13;;;;;;;8.17;5.80;;;22.10;99.90;;;;;;5053354;28;20508;-48
2022/08/11 09:49:43;;;;;;;5.20;4.80;;;22.10;99.90;;;;;;5052979;28;20561;-48
2022/08/11 09:52:13;;;;;;;6.20;5.70;;;22.40;99.90;;;;;;5053383;28;21028;-47
2022/08/11 09:54:42;;;;;;;5.50;5.03;;;22.50;99.90;;;;;;5053433;28;20479;-48
2022/08/11 10:02:45;;;;;;;10.40;5.50;;;22.40;99.90;;;;;;5147315;22;20933;-49
2022/08/11 10:08:04;;;;;;;7.83;5.07;;;23.00;99.90;;;;;;5092968;28;20468;-50
2022/08/11 10:10:36;;;;;;;5.13;4.70;;;23.10;99.90;;;;;;5092658;28;20472;-51
2022/08/11 10:13:08;;;;;;;6.10;5.60;;;23.10;99.90;;;;;;5092882;28;20940;-50
2022/08/11 10:15:38;;;;;;;5.70;5.20;;;23.10;99.90;;;;;;5092638;28;20496;-50
2022/08/11 10:20:58;;;;;;;5.70;4.50;;;23.50;99.90;;;;;;5092352;28;20438;-49
2022/08/11 10:33:58;;;;;;;6.07;5.57;;;23.20;99.90;;;;;;5092304;28;20422;-49
2022/08/11 10:34:35;;;;;;;7.70;5.07;;;23.20;99.90;;;;;;5091787;28;20451;-50
2022/08/11 10:37:03;;;;;;;5.33;4.93;;;23.60;99.90;;;;;;5092044;28;20432;-49
2022/08/11 10:39:31;;;;;;;5.07;4.63;;;23.40;99.90;;;;;;5091722;28;20440;-50
2022/08/11 10:44:46;;;;;;;5.10;4.67;;;23.60;99.90;;;;;;5091177;28;20411;-49
2022/08/11 11:01:04;;;;;;;4.20;3.80;;;24.70;99.90;;;;;;5091830;28;20470;-49
2022/08/11 11:03:34;;;;;;;4.57;4.17;;;24.50;99.90;;;;;;5092278;28;20440;-49
2022/08/11 11:06:09;;;;;;;5.20;4.37;;;24.80;99.90;;;;;;5092003;28;20482;-50
2022/08/11 11:08:54;;;;;;;5.90;5.30;;;24.60;99.90;;;;;;5091938;28;20542;-50
2022/08/11 11:17:54;;;;;;;5.67;5.17;;;24.50;99.90;;;;;;5091512;28;20471;-51
2022/08/11 11:19:49;;;;;;;5.60;5.10;;;24.80;99.90;;;;;;5090091;28;20458;-51
2022/08/11 11:25:15;;;;;;;9.10;5.23;;;24.90;99.90;;;;;;5091141;28;20834;-50
2022/08/11 11:27:54;;;;;;;6.07;5.33;;;24.80;99.90;;;;;;5091174;28;20432;-49
2022/08/11 11:30:23;;;;;;;5.83;5.23;;;24.90;99.90;;;;;;5091025;28;20501;-50
2022/08/11 11:33:03;;;;;;;6.43;5.87;;;24.80;99.90;;;;;;5091541;28;20439;-50
2022/08/11 11:35:40;;;;;;;5.43;4.63;;;24.70;99.90;;;;;;5091437;28;20439;-50
2022/08/11 11:38:09;;;;;;;5.13;4.73;;;24.80;99.90;;;;;;5091542;28;20444;-50
2022/08/11 11:40:37;;;;;;;5.63;5.23;;;24.80;99.90;;;;;;5090921;28;20445;-48
2022/08/11 11:43:06;;;;;;;5.40;4.90;;;24.70;99.90;;;;;;5090151;28;20523;-50
2022/08/11 11:45:33;;;;;;;6.03;5.30;;;24.90;99.90;;;;;;5097562;28;20498;-50
2022/08/11 11:48:02;;;;;;;5.10;4.50;;;25.10;99.90;;;;;;5098191;28;20444;-50
2022/08/11 11:50:31;;;;;;;5.80;5.30;;;25.00;99.90;;;;;;5097385;28;20486;-49
2022/08/11 11:53:00;;;;;;;5.30;4.90;;;25.00;99.90;;;;;;5095762;28;20485;-49
2022/08/11 11:55:28;;;;;;;5.10;4.70;;;25.20;99.90;;;;;;5097296;28;20451;-48
2022/08/11 12:03:28;;;;;;;5.30;4.73;;;25.40;99.90;;;;;;5097431;28;20845;-49
2022/08/11 12:05:56;;;;;;;5.33;4.83;;;25.50;99.90;;;;;;5098272;28;20482;-50
2022/08/11 12:08:24;;;;;;;5.83;5.33;;;25.60;99.90;;;;;;5098000;28;20447;-49
2022/08/11 12:13:39;;;;;;;5.97;5.47;;;25.40;99.90;;;;;;5097213;28;21059;-48
2022/08/11 12:13:43;;;;;;;4.83;4.43;;;25.40;99.90;;;;;;5097851;28;20431;-49
2022/08/11 12:16:14;;;;;;;5.00;4.60;;;25.40;99.90;;;;;;5097713;28;20514;-50
2022/08/11 12:18:43;;;;;;;4.87;4.40;;;25.50;99.90;;;;;;5097711;28;20455;-48
2022/08/11 12:21:11;;;;;;;7.27;5.70;;;25.50;99.90;;;;;;5097147;28;20462;-50
2022/08/11 12:29:26;;;;;;;5.33;4.93;;;25.40;99.90;;;;;;5054487;28;20556;-49
2022/08/11 12:31:57;;;;;;;5.40;5.00;;;25.30;99.90;;;;;;5088639;28;20540;-49
2022/08/11 12:34:27;;;;;;;5.87;5.33;;;25.10;99.90;;;;;;5097633;28;21008;-47
2022/08/11 12:36:58;;;;;;;5.97;5.23;;;25.20;99.90;;;;;;5097826;28;20420;-47
2022/08/11 12:53:16;;;;;;;4.40;4.00;;;25.60;99.90;;;;;;5097520;28;20515;-50
2022/08/11 12:58:29;;;;;;;4.60;4.20;;;25.90;99.90;;;;;;5094443;28;20457;-49
2022/08/11 13:06:28;;;;;;;4.43;4.03;;;25.60;99.90;;;;;;5094217;28;20521;-50
2022/08/11 13:08:57;;;;;;;6.07;4.97;;;25.70;99.90;;;;;;5094163;28;20440;-51
2022/08/11 13:14:18;;;;;;;4.57;4.27;;;25.90;99.50;;;;;;5068737;28;20434;-51
2022/08/11 13:19:34;;;;;;;6.83;4.40;;;26.10;98.80;;;;;;5093698;28;21085;-49
2022/08/11 13:22:06;;;;;;;6.83;4.70;;;26.00;98.50;;;;;;5093876;28;20487;-49
2022/08/11 13:24:34;;;;;;;5.03;4.20;;;26.10;97.80;;;;;;5092467;28;21005;-50
2022/08/11 13:27:02;;;;;;;5.57;4.00;;;25.90;99.10;;;;;;5093701;28;20424;-50
2022/08/11 13:29:29;;;;;;;3.93;3.63;;;25.90;97.90;;;;;;5093427;28;20534;-49
2022/08/11 13:31:58;;;;;;;4.90;4.50;;;26.00;98.50;;;;;;5093091;28;20483;-49
2022/08/11 13:34:27;;;;;;;4.60;4.30;;;26.00;97.80;;;;;;5093610;28;20788;-49
2022/08/11 13:36:59;;;;;;;4.97;4.57;;;25.80;98.00;;;;;;5093448;28;20485;-49
2022/08/11 13:39:29;;;;;;;5.20;4.70;;;25.70;96.60;;;;;;5093195;28;20448;-49
2022/08/11 13:41:58;;;;;;;4.20;3.80;;;25.60;98.10;;;;;;5093206;28;20473;-48
2022/08/11 13:44:27;;;;;;;5.20;4.80;;;25.50;97.70;;;;;;5093273;28;20511;-49
2022/08/11 13:46:59;;;;;;;4.60;4.20;;;25.40;99.90;;;;;;5092397;28;20443;-48
2022/08/11 13:49:27;;;;;;;4.80;4.03;;;25.60;97.90;;;;;;5093236;28;20450;-49
2022/08/11 13:51:57;;;;;;;4.10;3.80;;;25.70;98.20;;;;;;5091192;28;21010;-49
2022/08/11 13:54:27;;;;;;;4.20;3.90;;;25.60;97.00;;;;;;5093316;28;20439;-50
2022/08/11 13:56:56;;;;;;;4.50;4.10;;;25.60;97.30;;;;;;5093275;28;20448;-49
2022/08/11 13:59:24;;;;;;;4.57;4.17;;;25.70;96.80;;;;;;5093029;28;20447;-49
2022/08/11 14:01:55;;;;;;;5.33;4.83;;;25.70;97.30;;;;;;5092296;28;20471;-49
2022/08/11 14:04:28;;;;;;;4.57;4.27;;;25.60;99.10;;;;;;5093199;28;20493;-49
2022/08/11 14:06:58;;;;;;;5.00;4.60;;;25.70;98.60;;;;;;5092556;28;20420;-50
2022/08/11 14:09:30;;;;;;;4.70;4.30;;;25.60;98.90;;;;;;5092519;28;20531;-49
2022/08/11 14:14:49;;;;;;;5.20;3.90;;;25.70;98.20;;;;;;5092837;28;20419;-50
2022/08/11 14:17:19;;;;;;;5.77;5.27;;;25.70;98.10;;;;;;5092788;28;20444;-49
2022/08/11 14:19:50;;;;;;;4.77;4.47;;;25.60;98.00;;;;;;5092745;28;20473;-51
2022/08/11 14:22:20;;;;;;;6.03;4.23;;;25.40;98.40;;;;;;5092135;28;20467;-49
2022/08/11 14:24:48;;;;;;;5.60;4.40;;;25.40;98.20;;;;;;5092407;28;20432;-49
2022/08/11 14:27:17;;;;;;;4.67;4.37;;;25.40;99.90;;;;;;5092556;28;20846;-49
2022/08/11 14:29:46;;;;;;;5.43;5.03;;;25.40;97.50;;;;;;5092013;28;20948;-50
2022/08/11 14:32:14;;;;;;;4.57;4.17;;;25.20;98.30;;;;;;5091712;28;20475;-49
2022/08/11 14:34:43;;;;;;;3.80;3.50;;;25.20;97.40;;;;;;5092257;28;20448;-49
2022/08/11 14:37:14;;;;;;;4.13;3.83;;;25.10;98.00;;;;;;5092734;28;20447;-49
2022/08/11 14:39:47;;;;;;;5.43;5.00;;;25.20;99.00;;;;;;5091903;28;20439;-49
2022/08/11 14:47:52;;;;;;;4.60;4.30;;;25.00;97.20;;;;;;5092345;28;20423;-49
2022/08/11 14:50:23;;;;;;;5.50;5.00;;;25.00;99.60;;;;;;5092131;28;20448;-49
2022/08/11 14:52:53;;;;;;;4.77;4.37;;;25.10;98.30;;;;;;5091688;28;20951;-51
2022/08/11 14:58:10;;;;;;;5.40;4.90;;;25.20;98.50;;;;;;5091960;28;20427;-49
2022/08/11 15:00:38;;;;;;;4.93;4.53;;;25.10;98.80;;;;;;5091764;28;20452;-49
2022/08/11 15:03:09;;;;;;;6.23;5.63;;;25.10;98.30;;;;;;5092277;28;20447;-49
2022/08/11 15:05:38;;;;;;;5.27;4.87;;;25.00;98.90;;;;;;5091810;28;20846;-49
2022/08/11 15:08:06;;;;;;;5.00;4.60;;;25.00;98.80;;;;;;5091690;28;20463;-51
2022/08/11 15:10:35;;;;;;;5.60;5.10;;;25.10;99.40;;;;;;5091595;28;20482;-50
2022/08/11 15:13:03;;;;;;;6.03;5.53;;;25.10;99.00;;;;;;5091759;28;20846;-50
2022/08/11 15:18:18;;;;;;;8.37;5.27;;;25.00;99.90;;;;;;5091535;28;20434;-50
2022/08/11 15:37:24;;;;;;;5.43;4.93;;;25.20;98.80;;;;;;5091932;28;20428;-49
2022/08/11 15:37:29;;;;;;;5.70;5.20;;;25.10;98.60;;;;;;5092237;28;20517;-49
2022/08/11 15:45:49;;;;;;;6.03;5.03;;;25.00;98.90;;;;;;5089756;28;20939;-49
2022/08/11 15:48:38;;;;;;;4.97;4.57;;;25.00;98.00;;;;;;5090248;28;20538;-50
2022/08/11 15:51:10;;;;;;;8.00;6.07;;;24.90;98.00;;;;;;5089726;28;20479;-47
2022/08/11 15:53:43;;;;;;;6.00;5.60;;;25.00;99.80;;;;;;5089842;28;20444;-48
2022/08/11 15:56:11;;;;;;;6.90;6.30;;;25.00;99.30;;;;;;5091414;28;20443;-47
2022/08/11 16:04:17;;;;;;;8.53;5.93;;;25.00;99.60;;;;;;5071097;28;20424;-50
2022/08/11 16:06:55;;;;;;;5.43;4.93;;;25.00;98.70;;;;;;5071211;28;20460;-49
2022/08/11 16:09:27;;;;;;;5.37;4.90;;;25.00;99.00;;;;;;5070834;28;20517;-48
2022/08/11 16:11:58;;;;;;;6.93;6.43;;;25.00;98.20;;;;;;5079207;28;20570;-48
2022/08/11 16:17:16;;;;;;;7.60;6.90;;;25.10;99.30;;;;;;5090634;28;20930;-48
2022/08/11 16:19:44;;;;;;;9.27;8.00;;;25.20;98.70;;;;;;5084111;28;20439;-48
2022/08/11 16:22:14;;;;;;;5.90;5.30;;;25.10;98.70;;;;;;5083571;28;20459;-48
2022/08/11 16:24:45;;;;;;;6.50;5.90;;;25.10;98.90;;;;;;5088956;28;20443;-47
2022/08/11 16:27:14;;;;;;;6.63;6.03;;;25.00;99.90;;;;;;5090207;28;20516;-48
2022/08/11 16:29:46;;;;;;;8.10;6.30;;;24.90;98.40;;;;;;5089276;28;20431;-47
2022/08/11 16:32:17;;;;;;;5.27;4.77;;;24.90;98.30;;;;;;5094537;28;21032;-47
2022/08/11 16:40:21;;;;;;;5.37;4.90;;;24.50;99.30;;;;;;5094298;28;20427;-48
2022/08/11 16:48:27;;;;;;;5.37;4.97;;;24.40;98.30;;;;;;5094299;28;20422;-49
2022/08/11 16:50:54;;;;;;;9.60;6.43;;;24.30;98.40;;;;;;5094098;28;20438;-48
2022/08/11 16:53:22;;;;;;;4.83;4.53;;;24.30;98.60;;;;;;5094290;28;20860;-50
2022/08/11 16:55:51;;;;;;;6.00;4.87;;;24.30;99.40;;;;;;5094252;28;20508;-48
2022/08/11 17:01:07;;;;;;;4.80;4.40;;;24.30;99.90;;;;;;5093763;28;20428;-48
2022/08/11 17:14:46;;;;;;;4.87;4.47;;;24.10;97.90;;;;;;5094144;28;20520;-48
2022/08/11 17:17:20;;;;;;;4.60;4.20;;;24.10;98.10;;;;;;5094134;28;20438;-49
2022/08/11 17:19:50;;;;;;;5.47;4.93;;;24.00;99.20;;;;;;5093484;28;20458;-49
2022/08/11 17:25:06;;;;;;;4.47;4.17;;;23.90;98.90;;;;;;5092658;28;20422;-49
2022/08/11 17:27:34;;;;;;;4.60;4.20;;;23.90;97.60;;;;;;5093362;28;20444;-49
2022/08/11 17:30:04;;;;;;;6.00;4.03;;;23.90;97.80;;;;;;5093050;28;20448;-49
2022/08/11 17:35:33;;;;;;;8.33;4.23;;;23.70;98.90;;;;;;5093521;28;20423;-48
2022/08/11 17:38:04;;;;;;;4.50;4.07;;;23.80;97.80;;;;;;5093360;28;20581;-49
2022/08/11 17:40:35;;;;;;;4.90;4.50;;;23.80;98.00;;;;;;5093520;28;20521;-49
2022/08/11 17:48:39;;;;;;;4.70;4.30;;;23.70;98.40;;;;;;5092387;28;20473;-49
2022/08/11 17:51:10;;;;;;;5.10;4.70;;;23.70;98.00;;;;;;5092912;28;20480;-49
2022/08/11 18:03:27;;;;;;;4.30;3.90;;;23.60;97.70;;;;;;5092321;28;20455;-49
2022/08/11 18:04:50;;;;;;;4.53;4.13;;;23.50;98.10;;;;;;5091961;28;20454;-48
